Air Park, Nebraska
Current Conditions -  °F | °C
As of 7:54 PM on Wednesday 17 Dec 2014 (Local Time) from KLNK Reporting Station
Overcast Overcast  
Wind Chill: 18°   Ceiling: 7500
Heat Index: 26°   Visibility: 10mi
Dew Point: 17°   Wind: 8mph
Humidity: 69%   Direction: 110°ESE
Pressure: 30.26"   Gusts: NA
Location:  40.8731°N, 96.8015°W
Report Text: KLNK 180154Z 11007KT 10SM FEW060 OVC075 M03/M08 A3026 RMK AO2 SLP264 T10331083
Loading
Personal Weather Stations






























Interactive Weather Map New forecast layout! Learn more

10-Day Weather Forecast

Advertisements
Track Severe Weather on mobile